Meteo Giornale » Osservazioni meteo Italia » Brescia-Montichiari

ore: 02:20 - Osservazioni Meteo Brescia-Montichiari
Lat. 45° 24' N Lon. 10° 18' E Alt. 104 metri s.l.m.

nuvoloso Europe/Rome

18 °C

Nuvoloso

Temp. 24 Ore

18 °C

28 °C

Nord/Nord-Est

9.3 Km/h

Dew point 14 °C

Umidità 77 %

Visibilità  10 Km

Il sole sorge alle ore 06:02

Il sole tramonta alle ore 20:47

Data e Ora Cielo e Fenomeni T °C DP °C Um. % Pres. hPa Vis. km Vento km/h
Oggi h: 02:20 nuvoloso Nuvoloso 18 14 77 1009 10 N/NE 9.3
Oggi h: 01:50 sereno Sereno 18 15 82 1009 10 N/NE 11.1
Oggi h: 01:20 sereno Sereno 18 15 82 1009 10 N 5.5
Oggi h: 00:50 sereno Sereno 19 15 77 1009 10 N/NE 13
Oggi h: 00:20 sereno Sereno 19 16 82 1009 10 N/NE 11.1
Ieri h: 23:50 sereno Sereno 19 17 88 1009 10 N/NE 11.1
Ieri h: 23:20 sereno Sereno 19 18 93 1009 10 N 7.4
Ieri h: 22:50 poco_nuvoloso Poco Nuvoloso 19 18 93 1009 10 N 5.5
Ieri h: 22:20 nuvoloso Nuvoloso 19 18 93 1009 10 N 9.3
Ieri h: 21:50 sereno Sereno 19 18 93 1009 10 N 1.8
Ieri h: 21:20 sereno Sereno 20 18 88 1008 10 N/NE 11.1
Ieri h: 20:20 nuvoloso Nuvoloso 21 18 82 1008 10 N 3.7
Ieri h: 19:50 nuvoloso Nuvoloso 21 19 88 1007 10 N 9.3
Ieri h: 19:20 coperto_pioggia Pioggia Debole 20 19 93 1007 10 E 11.1
Ieri h: 18:50 coperto_pioggia Pioggia Debole 21 19 88 1007 10 E 13
Ieri h: 18:20 nuvoloso_temporali Temporale con Pioggia Foschia 21 19 88 1007 5 N 7.4
Ieri h: 17:50 nuvoloso_temporali Temporale nelle Vicinanze 23 18 73 1006 10 N/NE 18.5
Ieri h: 17:20 nuvoloso_temporali Temporale nelle Vicinanze 24 18 69 1005 10 N 14.8
Ieri h: 16:50 coperto_temporali Temporale 24 18 69 1004 10 N 22.2
Ieri h: 15:50 molto_nuvoloso Molto Nuvoloso 23 19 78 1004 10 N/NE 18.5
Ieri h: 15:20 nuvoloso_temporali Temporale nelle Vicinanze 24 19 73 1004 10 E 14.8
Ieri h: 14:50 coperto_temporali Temporale 25 20 73 1005 10 O/NO 11.1
Ieri h: 14:20 nuvoloso_temporali Temporale con Pioggia 21 19 88 1004 10 N/NO 9.3
Ieri h: 13:50 coperto_temporali Temporale Pioviggine 21 17 77 1005 10 O/NO 20.3
Ieri h: 13:20 coperto_temporali Temporale 26 18 61 1004 10 SO 11.1
Ieri h: 12:50 nuvoloso Nuvoloso 28 17 51 1004 10 O/SO 16.7
Ieri h: 12:20 nuvoloso Nuvoloso 28 18 54 1004 10 O/SO 14.8
Ieri h: 11:50 sereno Sereno 27 19 61 1004 10 SO 14.8
Ieri h: 11:20 sereno Sereno 27 18 57 1004 10 S 9.3
Ieri h: 10:50 sereno Sereno 26 19 65 1004 10 SO 11.1
Ieri h: 10:20 nuvoloso Nuvoloso 26 19 65 1004 10 SO 9.3
Ieri h: 09:50 molto_nuvoloso Molto Nuvoloso 25 19 69 1004 10 N 3.7
Ieri h: 09:20 poco_nuvoloso Poco Nuvoloso 25 19 69 1004 10 N 3.7
Ieri h: 08:50 molto_nuvoloso Molto Nuvoloso 24 19 73 1004 10 O 9.3
Ieri h: 08:20 molto_nuvoloso Molto Nuvoloso 24 19 73 1004 10 N/NO 7.4
Ieri h: 07:50 sereno Sereno 23 19 78 1004 10 N/NO 7.4
Ieri h: 07:20 sereno Sereno 22 19 83 1003 10 N 9.3
Ieri h: 06:50 sereno Sereno 20 19 93 1003 10 N 3.7
Ieri h: 05:50 sereno Sereno 20 18 88 1004 10 N 5.5
Ieri h: 05:20 sereno Sereno 20 19 93 1005 9 O/SO 9.3
Ieri h: 04:50 sereno Sereno 21 19 88 1005 10 N 3.7
Ieri h: 04:20 poco_nuvoloso Poco Nuvoloso 21 19 88 1005 10 N 5.5
Ieri h: 03:50 sereno Sereno 22 19 83 1005 10 E/SE 7.4
Ieri h: 03:20 sereno Sereno 23 19 78 1005 10 N 1.8
Ieri h: 02:50 sereno Sereno 23 20 83 1005 10 N 5.5